« Back
NWS Peachtree City, Ga » Text Product » AHN Terminal Aerodrome Forecast


Printer-friendly Version
Current Version              Previous Versions:   1  2  3  4  5  6  7  8  9  

Terminal Aerodrome Forecast

294
FTAK31 PAJN 012300
TAFAHN
TAF
PAHN 012328Z 0200/0224 12012G22KT P6SM VCSH SCT030 OVC070
      TEMPO 0200/0202 BKN025 OVC040
     FM020200 07008KT P6SM SCT030 BKN100
     FM020700 VRB06KT P6SM VCSH BKN030 OVC050
     FM021400 VRB06KT P6SM -RA BKN020 OVC050
     FM022000 30008KT 6SM -RA BKN020 OVC040
      AMD LTD TO CLD VIS AND WIND=

USA.gov is the U.S. government's official web portal to all federal, state and local government web resources and services.